Time;durP1;ratioP1;P1;durP2;ratioP2;P2;SDS_P1;SDS_P2;PMS_P1;PMS_P2;Temp;Humidity;BMP_temperature;BMP_pressure;BME280_temperature;BME280_humidity;BME280_pressure;Samples;Min_cycle;Max_cycle;Signal;HPM_P1;HPM_P2
2022/12/02 00:02:34;;;;;;;84.97;30.95;;;;;;;0.45;100.00;102158.09;4913506;29;20408;-79
2022/12/02 00:05:21;;;;;;;76.32;29.35;;;;;;;0.48;100.00;102163.22;4905889;29;20036;-77
2022/12/02 00:07:50;;;;;;;79.45;32.45;;;;;;;0.48;100.00;102163.22;4913124;29;20036;-77
2022/12/02 00:10:28;;;;;;;96.10;36.00;;;;;;;0.20;100.00;102143.31;4914237;29;20067;-77
2022/12/02 00:12:54;;;;;;;92.93;33.47;;;;;;;0.23;100.00;102150.22;4912857;29;20064;-76
2022/12/02 00:15:25;;;;;;;;;;;;;;;0.12;100.00;102145.41;4913480;29;20036;-76
2022/12/02 00:17:51;;;;;;;97.40;33.28;;;;;;;0.08;100.00;102151.69;4896955;29;20380;-77
2022/12/02 00:20:16;;;;;;;92.60;33.07;;;;;;;0.14;100.00;102162.81;4912788;29;20032;-77
2022/12/02 00:22:41;;;;;;;85.13;32.50;;;;;;;0.10;100.00;102158.59;4912673;29;20035;-77
2022/12/02 00:25:07;;;;;;;90.97;33.57;;;;;;;0.17;100.00;102174.97;4912969;29;20351;-77
2022/12/02 00:27:32;;;;;;;89.28;32.38;;;;;;;-0.02;100.00;102165.19;4913968;29;20036;-76
2022/12/02 00:29:58;;;;;;;90.03;33.73;;;;;;;0.12;100.00;102187.44;4912829;29;20024;-76
2022/12/02 00:32:23;;;;;;;86.57;33.17;;;;;;;0.11;100.00;102186.56;4912160;29;20811;-76
2022/12/02 00:34:48;;;;;;;77.90;29.97;;;;;;;0.14;100.00;102194.34;4912600;29;20479;-79
2022/12/02 00:37:14;;;;;;;91.57;33.03;;;;;;;0.23;100.00;102195.72;4913757;29;20338;-77
2022/12/02 00:39:39;;;;;;;89.82;33.53;;;;;;;0.25;100.00;102191.25;4912512;29;20036;-77
2022/12/02 00:42:05;;;;;;;90.13;36.03;;;;;;;0.29;100.00;102197.28;4912168;29;20044;-79
2022/12/02 00:47:14;;;;;;;94.63;35.25;;;;;;;0.22;100.00;102186.16;4906317;29;20276;-77
2022/12/02 00:49:39;;;;;;;87.20;31.90;;;;;;;0.13;100.00;102168.97;4911731;29;20406;-78
2022/12/02 00:52:05;;;;;;;91.80;35.10;;;;;;;0.31;100.00;102192.81;4896380;29;20288;-78
2022/12/02 00:54:30;;;;;;;95.80;37.60;;;;;;;0.25;100.00;102191.25;4912372;29;20489;-77
2022/12/02 00:56:55;;;;;;;92.07;35.60;;;;;;;0.06;100.00;102175.38;4912180;29;20032;-76
2022/12/02 00:59:21;;;;;;;93.07;34.70;;;;;;;0.16;100.00;102196.88;4912069;29;21008;-78
2022/12/02 01:01:47;;;;;;;94.68;34.85;;;;;;;0.25;100.00;102204.41;4911764;29;20472;-77
2022/12/02 01:04:12;;;;;;;99.72;36.03;;;;;;;0.36;100.00;102220.59;4912359;29;20032;-77
2022/12/02 01:06:38;;;;;;;96.68;36.67;;;;;;;0.39;100.00;102215.22;4911782;29;20040;-78
2022/12/02 01:09:03;;;;;;;93.40;34.10;;;;;;;0.45;100.00;102229.06;4895240;29;20545;-76
2022/12/02 01:11:29;;;;;;;107.47;33.63;;;;;;;0.51;100.00;102244.56;4914259;29;20133;-77
2022/12/02 01:13:54;;;;;;;95.07;34.17;;;;;;;0.47;100.00;102232.44;4912005;28;20216;-77
2022/12/02 01:16:19;;;;;;;88.67;33.37;;;;;;;0.52;100.00;102241.03;4911874;29;20283;-79
2022/12/02 01:18:45;;;;;;;84.23;32.17;;;;;;;0.52;100.00;102241.88;4896400;29;20517;-77
2022/12/02 01:21:10;;;;;;;93.50;35.77;;;;;;;0.60;100.00;102259.97;4895886;29;20292;-77
2022/12/02 01:23:35;;;;;;;92.47;33.83;;;;;;;0.62;100.00;102274.75;4911893;29;20284;-76
2022/12/02 01:26:01;;;;;;;98.32;35.15;;;;;;;0.60;100.00;102270.47;4911670;29;20481;-77
2022/12/02 01:28:26;;;;;;;94.40;35.83;;;;;;;0.66;100.00;102269.41;4913000;29;20550;-77
2022/12/02 01:30:52;;;;;;;94.38;33.55;;;;;;;0.64;100.00;102272.06;4912439;29;20063;-77
2022/12/02 01:33:17;;;;;;;95.57;34.93;;;;;;;0.59;100.00;102271.41;4911141;29;20072;-75
2022/12/02 01:35:42;;;;;;;95.63;34.50;;;;;;;0.49;100.00;102256.91;4912667;29;20086;-76
2022/12/02 01:38:08;;;;;;;89.13;33.33;;;;;;;0.47;100.00;102251.72;4913146;29;20315;-75
2022/12/02 01:40:33;;;;;;;90.57;32.57;;;;;;;0.55;100.00;102251.41;4911456;29;21309;-75
2022/12/02 01:42:59;;;;;;;94.13;33.73;;;;;;;0.57;100.00;102262.72;4911685;29;20280;-76
2022/12/02 01:45:24;;;;;;;93.60;34.77;;;;;;;0.49;100.00;102251.66;4913426;29;20347;-75
2022/12/02 01:47:50;;;;;;;93.53;33.97;;;;;;;0.49;100.00;102249.03;4913537;29;20397;-76
2022/12/02 01:50:16;;;;;;;101.22;36.63;;;;;;;0.37;100.00;102239.84;4911231;29;20296;-75
2022/12/02 01:52:42;;;;;;;96.15;37.92;;;;;;;0.37;100.00;102243.31;4911031;29;20652;-76
2022/12/02 01:55:22;;;;;;;97.13;37.50;;;;;;;0.42;100.00;102251.03;4911165;29;20040;-75
2022/12/02 01:57:48;;;;;;;92.47;33.72;;;;;;;0.51;100.00;102250.66;4911187;29;20079;-75
2022/12/02 02:00:14;;;;;;;97.45;35.95;;;;;;;0.52;100.00;102251.53;4911361;29;20051;-77
2022/12/02 02:02:40;;;;;;;89.53;32.95;;;;;;;0.51;100.00;102244.56;4910735;29;20580;-76
2022/12/02 02:05:10;;;;;;;91.25;35.20;;;;;;;0.60;100.00;102257.34;4912369;29;20019;-76
2022/12/02 02:07:37;;;;;;;99.30;35.97;;;;;;;0.66;100.00;102258.88;4910726;29;20120;-76
2022/12/02 02:10:05;;;;;;;98.47;35.15;;;;;;;0.68;100.00;102263.16;4910491;29;20537;-75
2022/12/02 02:12:30;;;;;;;96.15;36.78;;;;;;;0.60;100.00;102258.19;4910510;29;20044;-75
2022/12/02 02:14:56;;;;;;;96.72;36.88;;;;;;;0.69;100.00;102262.22;4910303;29;20478;-75
2022/12/02 02:17:22;;;;;;;95.32;35.30;;;;;;;0.73;100.00;102270.88;4911785;29;20505;-75
2022/12/02 02:19:48;;;;;;;87.82;34.53;;;;;;;0.73;100.00;102265.59;4911540;29;20043;-76
2022/12/02 02:22:22;;;;;;;95.88;34.55;;;;;;;0.65;100.00;102251.91;4910460;29;20036;-76
2022/12/02 02:24:47;;;;;;;89.80;34.75;;;;;;;0.65;100.00;102263.25;4910472;29;20047;-76
2022/12/02 02:27:13;;;;;;;97.30;36.22;;;;;;;0.68;100.00;102264.91;4910551;29;20027;-76
2022/12/02 02:29:41;;;;;;;94.97;34.50;;;;;;;0.74;100.00;102289.19;4910440;29;20119;-76
2022/12/02 02:32:06;;;;;;;100.18;37.35;;;;;;;0.77;100.00;102293.47;4894407;29;20118;-75
2022/12/02 02:34:33;;;;;;;98.57;35.78;;;;;;;0.73;100.00;102282.22;4911245;29;20039;-75
2022/12/02 02:36:59;;;;;;;93.20;34.95;;;;;;;0.72;100.00;102287.53;4910303;29;20056;-76
2022/12/02 02:39:25;;;;;;;93.88;35.30;;;;;;;0.78;100.00;102287.31;4911658;29;20410;-75
2022/12/02 02:41:53;;;;;;;88.40;36.25;;;;;;;0.76;100.00;102286.50;4910159;29;20379;-75
2022/12/02 02:44:19;;;;;;;85.63;32.90;;;;;;;0.83;100.00;102283.56;4910513;29;20032;-76
2022/12/02 02:46:45;;;;;;;90.03;34.40;;;;;;;0.80;100.00;102273.19;4910092;29;20052;-76
2022/12/02 02:49:11;;;;;;;92.63;32.95;;;;;;;0.83;100.00;102282.72;4910124;29;20032;-76
2022/12/02 02:51:36;;;;;;;91.93;33.95;;;;;;;0.84;100.00;102281.78;4909890;29;20036;-75
2022/12/02 02:54:02;;;;;;;89.97;33.58;;;;;;;0.82;100.00;102279.22;4908439;29;20107;-75
2022/12/02 02:56:27;;;;;;;94.70;34.53;;;;;;;0.74;100.00;102257.63;4910092;29;20039;-75
2022/12/02 02:58:53;;;;;;;90.28;34.22;;;;;;;0.75;100.00;102253.22;4910125;29;20040;-75
2022/12/02 03:01:24;;;;;;;89.78;34.13;;;;;;;0.80;100.00;102260.03;4909877;29;20043;-76
2022/12/02 03:03:56;;;;;;;84.00;31.30;;;;;;;0.85;100.00;102259.84;4894304;29;20141;-76
2022/12/02 03:06:24;;;;;;;90.03;33.38;;;;;;;0.84;100.00;102259.00;4894162;29;20556;-75
2022/12/02 03:08:51;;;;;;;87.22;32.70;;;;;;;0.92;100.00;102277.06;4909513;29;20774;-76
2022/12/02 03:11:17;;;;;;;86.13;31.15;;;;;;;0.89;100.00;102260.56;4909474;29;20032;-76
2022/12/02 03:13:45;;;;;;;94.25;35.47;;;;;;;0.83;100.00;102257.25;4910948;29;20517;-76
2022/12/02 03:16:13;;;;;;;93.28;34.30;;;;;;;0.80;100.00;102241.63;4910771;29;20050;-75
2022/12/02 03:18:40;;;;;;;83.70;31.58;;;;;;;0.72;100.00;102230.56;4911771;29;20091;-76
2022/12/02 03:21:07;;;;;;;86.68;34.05;;;;;;;0.69;100.00;102225.44;4910536;29;20096;-76
2022/12/02 03:23:33;;;;;;;89.47;33.30;;;;;;;0.75;100.00;102227.81;4909502;29;20032;-75
2022/12/02 03:26:00;;;;;;;96.90;36.90;;;;;;;0.81;100.00;102242.47;4909632;29;20047;-75
2022/12/02 03:28:49;;;;;;;87.93;33.47;;;;;;;0.78;100.00;102243.44;4894247;29;20043;-76
2022/12/02 03:31:15;;;;;;;85.95;32.53;;;;;;;0.76;100.00;102247.06;4873045;29;20064;-78
2022/12/02 03:33:42;;;;;;;92.15;34.00;;;;;;;0.71;100.00;102242.00;4873370;29;20044;-76
2022/12/02 03:36:08;;;;;;;90.25;32.30;;;;;;;0.69;100.00;102243.81;4873778;29;20076;-76
2022/12/02 03:38:35;;;;;;;81.93;32.38;;;;;;;0.71;100.00;102255.13;4873443;29;20091;-75
2022/12/02 03:41:04;;;;;;;83.13;32.47;;;;;;;0.67;100.00;102255.31;4888488;29;20039;-76
2022/12/02 03:43:30;;;;;;;89.72;33.10;;;;;;;0.64;100.00;102261.56;4889406;29;20041;-76
2022/12/02 03:45:56;;;;;;;91.43;34.30;;;;;;;0.61;100.00;102261.69;4889383;29;20375;-76
2022/12/02 03:48:23;;;;;;;83.28;31.35;;;;;;;0.60;100.00;102265.22;4889644;29;20731;-78
2022/12/02 03:50:50;;;;;;;84.82;34.92;;;;;;;0.63;100.00;102275.59;4873487;29;20410;-76
2022/12/02 03:53:16;;;;;;;91.00;33.42;;;;;;;0.60;100.00;102281.00;4889518;29;20533;-75
2022/12/02 03:55:41;;;;;;;93.30;35.28;;;;;;;0.59;100.00;102279.28;4889214;29;20045;-77
2022/12/02 03:58:07;;;;;;;94.57;35.50;;;;;;;0.56;100.00;102284.66;4889184;29;20036;-75
2022/12/02 04:00:34;;;;;;;;;;;;;;;0.56;100.00;102289.91;4873518;29;20447;-75
2022/12/02 04:02:59;;;;;;;99.45;36.30;;;;;;;0.52;100.00;102293.59;4889228;29;19922;-75
2022/12/02 04:05:25;;;;;;;98.78;35.90;;;;;;;0.54;100.00;102294.38;4873486;29;20914;-75
2022/12/02 04:07:50;;;;;;;103.47;35.70;;;;;;;0.50;100.00;102283.13;4882986;29;20052;-76
2022/12/02 04:10:15;;;;;;;91.60;31.53;;;;;;;0.50;100.00;102291.00;4909853;29;20292;-77
2022/12/02 04:12:41;;;;;;;88.22;32.17;;;;;;;0.50;100.00;102290.16;4909055;29;20043;-75
2022/12/02 04:15:07;;;;;;;92.57;34.83;;;;;;;0.40;100.00;102282.63;4893442;29;20040;-76
2022/12/02 04:17:33;;;;;;;85.18;31.27;;;;;;;0.43;100.00;102281.66;4910821;29;20028;-75
2022/12/02 04:19:58;;;;;;;95.95;35.55;;;;;;;0.47;100.00;102293.78;4893226;29;20071;-76
2022/12/02 04:22:24;;;;;;;99.37;35.13;;;;;;;0.49;100.00;102298.94;4908726;29;20035;-77
2022/12/02 04:24:49;;;;;;;97.65;35.85;;;;;;;0.46;100.00;102299.06;4908907;29;20044;-78
2022/12/02 04:27:14;;;;;;;94.47;36.27;;;;;;;0.43;100.00;102296.56;4910249;29;20110;-75
2022/12/02 04:29:40;;;;;;;84.53;31.73;;;;;;;0.21;100.00;102278.97;4909045;29;20299;-76
2022/12/02 04:32:05;;;;;;;82.82;30.55;;;;;;;0.38;100.00;102297.59;4910388;29;20043;-75
2022/12/02 04:34:31;;;;;;;87.75;31.52;;;;;;;0.44;100.00;102299.13;4908476;29;20048;-75
2022/12/02 04:36:56;;;;;;;94.20;34.08;;;;;;;0.36;100.00;102286.28;4909948;29;20035;-75
2022/12/02 04:39:21;;;;;;;91.83;33.13;;;;;;;0.20;100.00;102293.03;4908959;29;20024;-76
2022/12/02 04:41:47;;;;;;;95.10;31.63;;;;;;;0.19;100.00;102292.19;4892929;29;20545;-76
2022/12/02 04:44:12;;;;;;;82.72;32.60;;;;;;;0.08;100.00;102286.47;4911426;29;20657;-76
2022/12/02 04:46:38;;;;;;;101.05;33.83;;;;;;;0.04;100.00;102290.13;4913369;29;20051;-75
2022/12/02 04:49:03;;;;;;;97.10;35.27;;;;;;;0.15;100.00;102300.25;4896486;29;20035;-77
2022/12/02 04:51:28;;;;;;;104.40;33.88;;;;;;;0.13;100.00;102302.06;4912017;29;20288;-76
2022/12/02 04:53:54;;;;;;;105.72;37.30;;;;;;;0.11;100.00;102303.88;4912640;29;20062;-75
2022/12/02 04:56:19;;;;;;;112.17;37.83;;;;;;;0.09;100.00;102308.34;4895956;29;20127;-77
2022/12/02 04:58:44;;;;;;;103.10;35.97;;;;;;;0.19;100.00;102309.72;4912230;29;20662;-76
2022/12/02 05:01:10;;;;;;;105.90;38.33;;;;;;;0.23;100.00;102307.81;4913082;29;20410;-77
2022/12/02 05:03:35;;;;;;;115.40;37.13;;;;;;;0.19;100.00;102296.59;4912303;29;20454;-76
2022/12/02 05:06:01;;;;;;;115.73;36.90;;;;;;;0.35;100.00;102316.13;4912044;29;20363;-76
2022/12/02 05:08:26;;;;;;;105.95;37.60;;;;;;;0.20;100.00;102300.91;4911949;29;20821;-76
2022/12/02 05:10:51;;;;;;;111.93;37.10;;;;;;;0.11;100.00;102301.25;4911306;29;20071;-77
2022/12/02 05:13:17;;;;;;;106.73;35.90;;;;;;;0.12;100.00;102298.59;4911585;29;20681;-75
2022/12/02 05:15:42;;;;;;;90.53;34.83;;;;;;;0.25;100.00;102312.09;4911477;29;20316;-75
2022/12/02 05:18:07;;;;;;;112.25;36.50;;;;;;;0.05;100.00;102298.84;4911249;29;20040;-77
2022/12/02 05:20:33;;;;;;;107.33;37.73;;;;;;;-0.05;100.00;102300.97;4912863;29;20028;-75
2022/12/02 05:22:58;;;;;;;112.07;35.85;;;;;;;-0.11;100.00;102298.59;4911454;29;20032;-75
2022/12/02 05:25:23;;;;;;;112.97;41.73;;;;;;;0.02;100.00;102312.09;4912211;29;20032;-76
2022/12/02 05:27:48;;;;;;;114.20;36.70;;;;;;;0.15;100.00;102322.09;4912868;29;20043;-74
2022/12/02 05:30:38;;;;;;;104.60;36.43;;;;;;;0.25;100.00;102317.38;4911397;29;20292;-77
2022/12/02 05:33:04;;;;;;;109.47;37.75;;;;;;;0.27;100.00;102328.66;4890677;29;20373;-75
2022/12/02 05:35:29;;;;;;;105.20;36.80;;;;;;;0.31;100.00;102322.41;4890800;29;20544;-77
2022/12/02 05:37:55;;;;;;;97.30;33.47;;;;;;;0.32;100.00;102328.50;4890879;29;20583;-76
2022/12/02 05:40:20;;;;;;;100.68;35.30;;;;;;;0.33;100.00;102319.72;4890992;29;20296;-77
2022/12/02 05:42:46;;;;;;;100.03;37.53;;;;;;;0.34;100.00;102327.53;4873932;29;20048;-74
2022/12/02 05:45:29;;;;;;;105.37;35.73;;;;;;;0.35;100.00;102331.88;4890979;29;20049;-75
2022/12/02 05:47:54;;;;;;;104.03;34.30;;;;;;;0.40;100.00;102324.69;4891265;29;20495;-77
2022/12/02 05:50:21;;;;;;;112.10;34.05;;;;;;;0.30;100.00;102319.81;4874905;29;20782;-76
2022/12/02 05:52:54;;;;;;;101.93;33.63;;;;;;;0.18;100.00;102305.38;4891003;29;20069;-75
2022/12/02 05:55:21;;;;;;;112.40;37.63;;;;;;;0.32;100.00;102316.22;4890006;29;20040;-77
2022/12/02 05:57:47;;;;;;;95.18;35.10;;;;;;;0.30;100.00;102307.53;4890577;29;20131;-75
2022/12/02 06:00:21;;;;;;;93.68;30.83;;;;;;;0.35;100.00;102312.63;4890585;29;20032;-75
2022/12/02 06:02:50;;;;;;;94.30;32.20;;;;;;;0.33;100.00;102303.97;4874787;29;20514;-76
2022/12/02 06:05:22;;;;;;;93.35;35.05;;;;;;;0.27;100.00;102299.78;4890476;29;20047;-75
2022/12/02 06:07:54;;;;;;;106.18;35.50;;;;;;;0.33;100.00;102317.94;4889657;29;20036;-78
2022/12/02 06:10:42;;;;;;;94.43;33.80;;;;;;;0.33;100.00;102312.69;4894916;29;20946;-77
2022/12/02 06:13:15;;;;;;;100.25;33.15;;;;;;;0.35;100.00;102318.75;4894851;29;20107;-75
2022/12/02 06:15:41;;;;;;;106.85;34.75;;;;;;;0.40;100.00;102321.19;4894870;29;20441;-75
2022/12/02 06:18:13;;;;;;;93.13;31.83;;;;;;;0.43;100.00;102331.59;4894792;29;20020;-75
2022/12/02 06:20:39;;;;;;;91.97;32.72;;;;;;;0.41;100.00;102318.50;4912972;29;20024;-75
2022/12/02 06:23:11;;;;;;;101.50;33.75;;;;;;;0.47;100.00;102324.44;4911986;29;20588;-78
2022/12/02 06:25:37;;;;;;;101.32;31.60;;;;;;;0.33;100.00;102296.06;4910191;29;20397;-75
2022/12/02 06:28:20;;;;;;;96.53;31.95;;;;;;;0.47;100.00;102322.69;4910569;29;20036;-76
2022/12/02 06:30:46;;;;;;;88.82;31.48;;;;;;;0.46;100.00;102320.09;4909856;29;20039;-75
2022/12/02 06:33:22;;;;;;;;;;;;;;;0.49;100.00;102330.47;4911136;29;20536;-77
2022/12/02 06:35:47;;;;;;;102.32;32.85;;;;;;;0.46;100.00;102330.59;4910486;29;19926;-75
2022/12/02 06:38:24;;;;;;;86.03;31.35;;;;;;;0.46;100.00;102317.47;4910688;29;20040;-75
2022/12/02 06:40:49;;;;;;;85.95;28.63;;;;;;;0.43;100.00;102321.06;4909047;29;20040;-77
2022/12/02 06:43:23;;;;;;;93.95;32.58;;;;;;;0.47;100.00;102312.16;4911630;29;20049;-75
2022/12/02 06:45:49;;;;;;;94.30;31.92;;;;;;;0.46;100.00;102323.56;4913550;29;20079;-75
2022/12/02 06:48:35;;;;;;;84.15;27.10;;;;;;;0.44;100.00;102316.66;4910262;29;20520;-76
2022/12/02 06:51:16;;;;;;;91.93;31.00;;;;;;;0.43;100.00;102323.69;4909170;29;20040;-74
2022/12/02 06:53:42;;;;;;;90.95;30.02;;;;;;;0.52;100.00;102328.59;4910568;29;20083;-74
2022/12/02 06:56:21;;;;;;;86.05;29.45;;;;;;;0.33;100.00;102322.34;4910528;29;20028;-75
2022/12/02 06:58:50;;;;;;;83.75;27.50;;;;;;;0.49;100.00;102333.13;4911476;29;20103;-75
2022/12/02 07:01:32;;;;;;;88.88;30.17;;;;;;;0.51;100.00;102324.25;4886942;29;20247;-75
2022/12/02 07:04:30;;;;;;;86.22;28.25;;;;;;;0.59;100.00;102337.97;4902193;29;20039;-75
2022/12/02 07:07:00;;;;;;;91.15;29.08;;;;;;;0.58;100.00;102335.38;4908717;29;20040;-75
2022/12/02 07:09:36;;;;;;;83.50;29.85;;;;;;;0.48;100.00;102329.63;4911247;29;20504;-75
2022/12/02 07:12:03;;;;;;;84.80;28.38;;;;;;;0.54;100.00;102334.66;4871171;29;20036;-76
2022/12/02 07:14:43;;;;;;;;;;;;;;;0.61;100.00;102341.41;4907303;29;20031;-75
2022/12/02 07:17:19;;;;;;;85.18;28.70;;;;;;;0.59;100.00;102331.88;4907936;28;19943;-75
2022/12/02 07:19:49;;;;;;;78.13;27.58;;;;;;;0.62;100.00;102323.84;4909088;29;20099;-75
2022/12/02 07:22:21;;;;;;;79.68;27.33;;;;;;;0.67;100.00;102339.44;4908836;29;20040;-76
2022/12/02 07:24:54;;;;;;;85.00;29.92;;;;;;;0.67;100.00;102336.81;4901908;29;20560;-75
2022/12/02 07:27:32;;;;;;;73.03;25.85;;;;;;;0.72;100.00;102337.50;4872941;29;20405;-76
2022/12/02 07:29:59;;;;;;;77.25;26.35;;;;;;;0.78;100.00;102332.00;4908716;29;20060;-75
2022/12/02 07:32:25;;;;;;;90.57;29.45;;;;;;;0.72;100.00;102333.06;4910189;29;20028;-75
2022/12/02 07:34:51;;;;;;;84.07;28.80;;;;;;;0.77;100.00;102325.00;4909079;29;20111;-75
2022/12/02 07:37:16;;;;;;;79.00;29.08;;;;;;;0.82;100.00;102331.81;4872071;29;20040;-74
2022/12/02 07:39:42;;;;;;;84.90;28.33;;;;;;;0.87;100.00;102336.00;4910009;29;20386;-76
2022/12/02 07:42:07;;;;;;;82.55;27.95;;;;;;;0.96;100.00;102343.53;4908816;29;20043;-75
2022/12/02 07:44:32;;;;;;;68.47;25.83;;;;;;;0.93;100.00;102346.31;4908841;29;20054;-75
2022/12/02 07:46:58;;;;;;;75.30;27.33;;;;;;;0.91;100.00;102356.88;4909824;29;20095;-75
2022/12/02 07:49:23;;;;;;;80.43;27.80;;;;;;;0.93;100.00;102346.31;4908609;29;20332;-75
2022/12/02 07:51:49;;;;;;;76.65;27.40;;;;;;;0.88;100.00;102343.84;4909752;29;20276;-75
2022/12/02 07:54:14;;;;;;;81.20;27.08;;;;;;;0.91;100.00;102348.97;4908568;29;20047;-75
2022/12/02 07:56:40;;;;;;;74.13;25.50;;;;;;;0.90;100.00;102346.44;4908277;29;20047;-76
2022/12/02 07:59:05;;;;;;;84.30;28.67;;;;;;;0.82;100.00;102338.84;4892689;29;20292;-76
2022/12/02 08:01:30;;;;;;;79.83;29.47;;;;;;;0.91;100.00;102346.34;4910718;29;20288;-75
2022/12/02 08:03:56;;;;;;;75.10;27.63;;;;;;;0.89;100.00;102344.69;4909541;29;20032;-76
2022/12/02 08:06:21;;;;;;;81.03;28.30;;;;;;;0.91;100.00;102351.63;4908747;29;20292;-76
2022/12/02 08:08:46;;;;;;;80.70;28.43;;;;;;;0.92;100.00;102349.88;4909045;29;20039;-76
2022/12/02 08:11:12;;;;;;;84.53;28.73;;;;;;;0.96;100.00;102343.53;4907980;29;20048;-75
2022/12/02 08:13:37;;;;;;;82.07;26.38;;;;;;;0.96;100.00;102352.31;4909190;29;20287;-76
2022/12/02 08:16:03;;;;;;;82.73;28.87;;;;;;;0.99;100.00;102359.22;4908882;29;20027;-76
2022/12/02 08:18:28;;;;;;;77.45;27.67;;;;;;;0.97;100.00;102359.28;4911343;29;20363;-75
2022/12/02 08:20:54;;;;;;;79.30;28.17;;;;;;;0.98;100.00;102355.75;4911660;29;20061;-75
2022/12/02 08:23:19;;;;;;;79.25;25.48;;;;;;;1.01;100.00;102363.50;4912169;29;20739;-77
2022/12/02 08:25:44;;;;;;;84.20;29.50;;;;;;;0.97;100.00;102350.53;4913710;29;20044;-76
2022/12/02 08:28:10;;;;;;;80.57;31.60;;;;;;;1.08;100.00;102366.75;4912031;29;20111;-76
2022/12/02 08:30:35;;;;;;;69.65;26.65;;;;;;;1.07;100.00;102361.53;4912478;29;20506;-76
2022/12/02 08:33:00;;;;;;;83.63;28.27;;;;;;;1.14;100.00;102360.38;4911974;29;20421;-75
2022/12/02 08:35:26;;;;;;;84.85;26.63;;;;;;;1.11;100.00;102356.09;4911829;29;20055;-76
2022/12/02 08:37:51;;;;;;;78.65;26.42;;;;;;;1.13;100.00;102348.16;4911686;29;20056;-77
2022/12/02 08:40:17;;;;;;;70.13;26.83;;;;;;;1.21;100.00;102361.84;4914248;29;20410;-75
2022/12/02 08:42:42;;;;;;;82.00;28.15;;;;;;;1.18;100.00;102352.28;4912489;29;20028;-75
2022/12/02 08:45:08;;;;;;;69.68;26.25;;;;;;;1.21;100.00;102357.41;4911676;29;20099;-75
2022/12/02 08:47:33;;;;;;;73.82;27.20;;;;;;;1.30;100.00;102363.25;4912831;29;20047;-75
2022/12/02 08:49:59;;;;;;;75.97;28.30;;;;;;;1.29;100.00;102350.97;4911413;29;20040;-76
2022/12/02 08:52:24;;;;;;;78.60;25.05;;;;;;;1.33;100.00;102347.31;4895997;29;20039;-76
2022/12/02 08:54:50;;;;;;;87.40;31.73;;;;;;;1.36;100.00;102344.53;4911361;29;20039;-77
2022/12/02 08:57:15;;;;;;;73.25;28.60;;;;;;;1.36;100.00;102349.81;4911654;29;20430;-76
2022/12/02 08:59:40;;;;;;;74.77;28.07;;;;;;;1.37;100.00;102346.28;4912414;29;20088;-76
2022/12/02 09:02:06;;;;;;;78.63;24.83;;;;;;;1.40;100.00;102347.00;4911339;29;20280;-76
2022/12/02 09:04:31;;;;;;;71.22;23.48;;;;;;;1.46;100.00;102343.25;4911677;29;20027;-76
2022/12/02 09:06:56;;;;;;;72.33;26.87;;;;;;;1.45;100.00;102344.16;4913283;29;20028;-76
2022/12/02 09:09:22;;;;;;;72.43;26.93;;;;;;;1.47;100.00;102339.69;4915749;29;20288;-76
2022/12/02 09:11:47;;;;;;;69.70;24.37;;;;;;;1.51;100.00;102348.34;4911854;29;20599;-76
2022/12/02 09:14:12;;;;;;;75.67;28.53;;;;;;;1.51;100.00;102340.44;4893249;29;20291;-75
2022/12/02 09:16:38;;;;;;;72.53;26.70;;;;;;;1.45;100.00;102345.03;4894810;29;20856;-75
2022/12/02 09:19:03;;;;;;;68.75;25.88;;;;;;;1.51;100.00;102341.28;4911204;29;20146;-76
2022/12/02 09:21:29;;;;;;;64.90;25.13;;;;;;;1.59;100.00;102341.84;4900335;29;20506;-76
2022/12/02 09:23:54;;;;;;;61.20;23.97;;;;;;;1.67;100.00;102346.75;4911920;29;20051;-77
2022/12/02 09:26:20;;;;;;;61.00;23.48;;;;;;;1.66;100.00;102343.28;4911536;29;20786;-76
2022/12/02 09:28:45;;;;;;;56.45;24.88;;;;;;;1.63;100.00;102330.22;4910852;29;20115;-76
2022/12/02 09:31:11;;;;;;;54.00;22.42;;;;;;;1.53;100.00;102321.03;4911608;29;20024;-77
2022/12/02 09:33:36;;;;;;;50.35;20.00;;;;;;;1.56;100.00;102314.75;4911916;29;20036;-76
2022/12/02 09:36:02;;;;;;;60.20;21.90;;;;;;;1.65;100.00;102309.09;4911724;29;20089;-76
2022/12/02 09:38:30;;;;;;;55.00;21.05;;;;;;;1.46;100.00;102285.34;4910349;29;20288;-76
2022/12/02 09:40:57;;;;;;;51.88;22.13;;;;;;;1.54;100.00;102280.59;4910444;29;20027;-76
2022/12/02 09:43:22;;;;;;;49.60;21.45;;;;;;;1.49;100.00;102266.78;4910175;29;20517;-75
2022/12/02 09:45:48;;;;;;;52.40;21.17;;;;;;;1.63;100.00;102269.66;4854687;29;20023;-75
2022/12/02 09:48:13;;;;;;;48.55;19.40;;;;;;;1.57;100.00;102258.53;4910596;29;20028;-76
2022/12/02 09:50:39;;;;;;;58.38;25.27;;;;;;;1.64;100.00;102244.22;4912474;29;21062;-76
2022/12/02 09:53:06;;;;;;;46.70;21.02;;;;;;;1.61;100.00;102252.22;4910401;29;20028;-76
2022/12/02 09:55:32;;;;;;;53.08;21.10;;;;;;;1.62;100.00;102252.19;4911075;29;20040;-75
2022/12/02 09:58:10;;;;;;;54.80;20.60;;;;;;;1.73;100.00;102261.38;4912958;29;20512;-75
2022/12/02 10:00:35;;;;;;;47.40;19.73;;;;;;;1.52;100.00;102227.16;4894220;29;20479;-76
2022/12/02 10:03:01;;;;;;;42.38;18.23;;;;;;;1.65;100.00;102225.69;4911794;29;20067;-78
2022/12/02 10:05:28;;;;;;;52.17;18.30;;;;;;;1.58;100.00;102197.09;4914352;29;20028;-75
2022/12/02 10:07:57;;;;;;;40.67;17.05;;;;;;;1.51;100.00;102185.97;4894704;29;20671;-75
2022/12/02 10:10:25;;;;;;;36.58;17.45;;;;;;;1.65;100.00;102186.22;4893966;29;20024;-77
2022/12/02 10:12:52;;;;;;;44.20;18.10;;;;;;;1.55;100.00;102161.22;4910351;29;20044;-76
2022/12/02 10:15:24;;;;;;;37.80;17.65;;;;;;;1.51;100.00;102158.81;4910692;29;20063;-75
2022/12/02 10:17:51;;;;;;;40.13;17.83;;;;;;;1.46;100.00;102135.31;4909667;29;20062;-75
2022/12/02 10:20:23;;;;;;;42.28;18.35;;;;;;;1.51;100.00;102132.50;4910947;29;20504;-75
2022/12/02 10:23:12;;;;;;;42.97;18.42;;;;;;;1.55;100.00;102115.63;4909975;29;21039;-76
2022/12/02 10:25:40;;;;;;;46.30;19.40;;;;;;;1.55;100.00;102105.97;4894762;29;20470;-77
2022/12/02 10:28:20;;;;;;;42.17;18.80;;;;;;;1.43;100.00;102093.38;4909639;29;20035;-76
2022/12/02 10:31:04;;;;;;;39.67;18.17;;;;;;;1.60;100.00;102101.31;4909346;29;20149;-77
2022/12/02 10:33:32;;;;;;;38.90;17.88;;;;;;;1.64;100.00;102092.38;4910693;29;20043;-76
2022/12/02 10:35:59;;;;;;;43.00;18.15;;;;;;;1.39;100.00;102062.84;4903849;29;20046;-76
2022/12/02 10:38:30;;;;;;;40.58;18.05;;;;;;;1.53;100.00;102078.84;4911572;29;20039;-76
2022/12/02 10:41:23;;;;;;;40.85;19.27;;;;;;;1.68;100.00;102091.28;4914049;29;20417;-78
2022/12/02 10:43:51;;;;;;;46.38;18.00;;;;;;;1.68;100.00;102093.06;4912511;29;20118;-76
2022/12/02 10:46:21;;;;;;;40.22;18.20;;;;;;;1.54;100.00;102077.91;4897400;29;20039;-76
2022/12/02 10:48:47;;;;;;;36.45;17.02;;;;;;;1.65;100.00;102073.00;4914345;29;20429;-76
2022/12/02 10:51:14;;;;;;;51.03;19.83;;;;;;;1.66;100.00;102074.72;4913092;29;20040;-78
2022/12/02 10:53:40;;;;;;;43.97;18.33;;;;;;;1.74;100.00;102076.13;4915217;29;20072;-76
2022/12/02 10:56:07;;;;;;;42.92;18.27;;;;;;;1.65;100.00;102056.34;4913700;29;20032;-78
2022/12/02 10:58:33;;;;;;;45.40;19.63;;;;;;;1.62;100.00;102040.72;4914427;29;20036;-78
2022/12/02 11:01:00;;;;;;;41.83;19.17;;;;;;;1.65;100.00;102030.03;4896966;29;20026;-79
2022/12/02 11:03:25;;;;;;;42.50;20.05;;;;;;;1.78;100.00;102051.34;4916277;29;20032;-77
2022/12/02 11:05:51;;;;;;;43.22;18.45;;;;;;;1.76;100.00;102037.44;4915016;29;20047;-78
2022/12/02 11:08:22;;;;;;;43.80;18.98;;;;;;;1.66;100.00;102008.91;4896699;29;20036;-78
2022/12/02 11:11:04;;;;;;;39.40;18.80;;;;;;;1.69;100.00;101998.22;4896742;29;20040;-77
2022/12/02 11:13:50;;;;;;;42.63;20.35;;;;;;;1.71;100.00;101989.38;4915219;29;20137;-76
2022/12/02 11:16:25;;;;;;;37.65;17.48;;;;;;;1.74;100.00;101987.47;4908131;29;20032;-77